Aérodrome :
LOGIN :

S'inscrire | Disclaimer

   EN    FR    IT 

 










Légende :    VFR   VFR Marginal   IFR   IFR Intensif   IFR Très Intensif
Visi : 
Plafond : 
>= 8 km
>= 3000ft
5 à 8 km
1000 à 3000 ft
1500m à 5 km
500 à 1000 ft
800 à 1500m
200 à 500 ft
< 800m
< 200 ft
Symboles :   Orages  Brouillard  Fortes neiges  Fortes précipitations  Vent > 20 kt
SIGMETs :   Divers  Orages  Givrage  Turbulence  Onde Orograph.  Cendres Volcan.






- Altitude de l'aérodrome : 464 ft
- Code IATA : EVX


LFOE - Evreux

DERNIER METAR :
  • 022200Z AUTO VRB03KT CAVOK 18/09 Q1013 TEMPO FEW060TCU

METARs EXPIRÉS :
  • 022130Z AUTO 33005KT 300V010 CAVOK 19/09 Q1013 TEMPO FEW060TCU
  • 022100Z AUTO 35005KT 320V030 CAVOK 20/09 Q1013 TEMPO FEW060TCU
  • 022030Z AUTO 36006KT 320V020 CAVOK 21/10 Q1013 TEMPO FEW060TCU
  • 022000Z AUTO 34005KT 310V020 CAVOK 22/10 Q1013 TEMPO FEW060TCU
  • 021930Z AUTO 34007KT 310V020 CAVOK 23/11 Q1013 TEMPO FEW060TCU

TAF TAF LFOE
Valide du 02 à 15h jusqu'au 03 à 15h UTC


021400Z 0215/0315 04003KT CAVOK
PROB30
TEMPO 0217/0223 01010G20KT FEW060TCU



MET'MAP, la Météo Aéronautique d'un coup d'oeil ! - Copyright ORBIFLY Décembre 2007 - Disclaimer

ORBIFLY MET'MAP TEAM :

Programmation & Développement : Alexandra Zaïnal
Sur une idée originale de : Baudouin d'Aumeries
Assistance à la programmation : Marc-Olivier Méhu
Soutien technique & logistique : Manuel Goepfert

Contact : metmap@orbifly.com




SOURCES & CREDITS :

   NOAA